createdAt,value
2023-04-11T00:00:31.552Z,2.60
2023-04-11T00:03:00.305Z,2.40
2023-04-11T00:05:33.446Z,2.30
2023-04-11T00:07:59.886Z,2.75
2023-04-11T00:10:26.315Z,2.42
2023-04-11T00:12:56.390Z,2.70
2023-04-11T00:15:24.105Z,2.38
2023-04-11T00:17:50.992Z,2.72
2023-04-11T00:20:17.436Z,2.58
2023-04-11T00:22:43.875Z,2.60
2023-04-11T00:25:10.363Z,2.47
2023-04-11T00:27:36.794Z,2.45
2023-04-11T00:30:03.606Z,2.30
2023-04-11T00:32:30.620Z,2.50
2023-04-11T00:34:57.020Z,2.60
2023-04-11T00:37:23.435Z,2.47
2023-04-11T00:39:56.356Z,3.25
2023-04-11T00:42:22.818Z,2.55
2023-04-11T00:44:49.350Z,2.92
2023-04-11T00:47:15.828Z,2.80
2023-04-11T00:49:42.362Z,2.50
2023-04-11T00:52:09.404Z,2.60
2023-04-11T00:54:35.856Z,2.92
2023-04-11T00:57:02.946Z,2.65
2023-04-11T00:59:30.001Z,2.53
2023-04-11T01:01:57.036Z,2.70
2023-04-11T01:04:24.061Z,3.13
2023-04-11T01:06:53.002Z,4.50
2023-04-11T01:09:25.606Z,2.72
2023-04-11T01:11:52.106Z,2.38
2023-04-11T01:14:19.049Z,2.80
2023-04-11T01:16:50.628Z,2.60
2023-04-11T01:19:21.050Z,2.72
2023-04-11T01:21:52.044Z,3.00
2023-04-11T01:26:45.376Z,2.60
2023-04-11T01:29:11.779Z,2.83
2023-04-11T01:31:38.376Z,3.10
2023-04-11T01:34:05.172Z,2.95
2023-04-11T01:36:32.309Z,2.63
2023-04-11T01:38:59.115Z,2.70
2023-04-11T01:41:26.721Z,2.78
2023-04-11T01:43:53.209Z,3.42
2023-04-11T01:46:19.794Z,3.00
2023-04-11T01:48:46.390Z,2.85
2023-04-11T01:51:12.837Z,2.92
2023-04-11T01:53:39.290Z,2.97
2023-04-11T01:56:06.019Z,3.20
2023-04-11T01:58:34.867Z,2.85
2023-04-11T02:01:01.857Z,3.08
2023-04-11T02:03:28.667Z,2.65
2023-04-11T02:05:55.893Z,2.97
2023-04-11T02:08:22.306Z,3.00
2023-04-11T02:10:48.830Z,2.90
2023-04-11T02:13:15.437Z,3.70
2023-04-11T02:15:41.917Z,3.40
2023-04-11T02:18:09.491Z,3.40
2023-04-11T02:20:40.527Z,3.38
2023-04-11T02:25:33.308Z,3.40
2023-04-11T02:28:00.125Z,3.80
2023-04-11T02:30:26.590Z,4.25
2023-04-11T02:32:53.221Z,3.08
2023-04-11T02:35:19.819Z,3.70
2023-04-11T02:37:46.317Z,3.20
2023-04-11T02:40:12.810Z,3.35
2023-04-11T02:42:43.027Z,3.92
2023-04-11T02:45:09.921Z,3.63
2023-04-11T02:47:36.590Z,4.20
2023-04-11T02:50:03.032Z,4.18
2023-04-11T02:52:29.392Z,3.67
2023-04-11T02:54:55.911Z,5.03
2023-04-11T02:57:22.325Z,4.05
2023-04-11T02:59:48.744Z,3.72
2023-04-11T03:02:15.249Z,3.78
2023-04-11T03:04:41.734Z,3.78
2023-04-11T03:07:08.090Z,4.00
2023-04-11T03:09:34.478Z,3.95
2023-04-11T03:12:01.334Z,4.18
2023-04-11T03:14:27.789Z,3.90
2023-04-11T03:16:54.292Z,4.13
2023-04-11T03:19:21.102Z,4.55
2023-04-11T03:21:47.564Z,4.30
2023-04-11T03:24:13.942Z,4.70
2023-04-11T03:26:40.492Z,4.63
2023-04-11T03:29:07.063Z,5.80
2023-04-11T03:31:33.575Z,4.47
2023-04-11T03:34:00.048Z,4.68
2023-04-11T03:36:29.946Z,4.18
2023-04-11T03:38:56.545Z,4.70
2023-04-11T03:41:23.120Z,4.38
2023-04-11T03:43:49.538Z,4.50
2023-04-11T03:46:15.954Z,4.07
2023-04-11T03:48:42.409Z,4.03
2023-04-11T03:51:08.856Z,4.25
2023-04-11T03:53:35.497Z,4.75
2023-04-11T03:56:01.927Z,3.90
2023-04-11T03:58:28.332Z,4.28
2023-04-11T04:00:54.802Z,4.40
2023-04-11T04:03:21.590Z,5.07
2023-04-11T04:05:48.095Z,4.07
2023-04-11T04:08:14.699Z,4.05
2023-04-11T04:10:41.077Z,4.32
2023-04-11T04:13:07.494Z,4.38
2023-04-11T04:15:33.911Z,5.45
2023-04-11T04:18:00.432Z,4.55
2023-04-11T04:20:30.029Z,4.35
2023-04-11T04:22:56.448Z,4.63
2023-04-11T04:25:25.760Z,5.45
2023-04-11T04:27:54.293Z,5.13
2023-04-11T04:30:21.907Z,4.72
2023-04-11T04:32:48.418Z,4.45
2023-04-11T04:35:16.778Z,4.95
2023-04-11T04:37:45.725Z,4.70
2023-04-11T04:40:14.127Z,5.30
2023-04-11T04:42:44.163Z,5.20
2023-04-11T04:45:13.530Z,5.57
2023-04-11T04:47:41.669Z,4.70
2023-04-11T04:50:08.314Z,5.55
2023-04-11T04:52:34.822Z,5.35
2023-04-11T04:55:01.637Z,5.40
2023-04-11T04:57:29.353Z,4.65
2023-04-11T04:59:56.311Z,5.03
2023-04-11T05:02:23.092Z,4.93
2023-04-11T05:04:50.302Z,5.03
2023-04-11T05:07:18.818Z,4.80
2023-04-11T05:09:45.401Z,5.38
2023-04-11T05:12:13.656Z,5.03
2023-04-11T05:14:40.065Z,4.78
2023-04-11T05:17:06.490Z,5.10
2023-04-11T05:19:33.160Z,4.75
2023-04-11T05:21:59.563Z,5.75
2023-04-11T05:24:26.065Z,5.00
2023-04-11T05:26:52.553Z,5.30
2023-04-11T05:29:18.939Z,4.93
2023-04-11T05:31:45.479Z,5.30
2023-04-11T05:34:11.909Z,5.38
2023-04-11T05:36:38.301Z,4.93
2023-04-11T05:39:04.780Z,5.60
2023-04-11T05:41:31.231Z,5.38
2023-04-11T05:43:57.868Z,5.05
2023-04-11T05:46:26.723Z,5.80
2023-04-11T05:48:53.097Z,5.30
2023-04-11T05:51:19.457Z,5.05
2023-04-11T05:53:45.893Z,6.05
2023-04-11T05:56:12.896Z,5.38
2023-04-11T05:58:39.615Z,6.65
2023-04-11T06:01:07.322Z,6.10
2023-04-11T06:03:33.986Z,5.80
2023-04-11T06:06:00.634Z,5.63
2023-04-11T06:08:27.625Z,5.43
2023-04-11T06:10:54.061Z,5.80
2023-04-11T06:13:20.743Z,5.07
2023-04-11T06:15:47.416Z,6.70
2023-04-11T06:18:13.862Z,6.15
2023-04-11T06:20:40.514Z,7.13
2023-04-11T06:23:07.306Z,5.90
2023-04-11T06:25:33.694Z,6.25
2023-04-11T06:28:02.008Z,7.05
2023-04-11T06:30:28.470Z,5.60
2023-04-11T06:32:56.061Z,6.35
2023-04-11T06:35:25.088Z,5.85
2023-04-11T06:37:52.189Z,6.55
2023-04-11T06:40:20.528Z,6.65
2023-04-11T06:42:47.408Z,7.20
2023-04-11T06:45:16.928Z,6.43
2023-04-11T06:47:43.374Z,6.20
2023-04-11T06:50:10.120Z,6.32
2023-04-11T06:52:36.939Z,6.28
2023-04-11T06:55:03.450Z,6.22
2023-04-11T06:57:29.897Z,6.78
2023-04-11T06:59:56.345Z,6.65
2023-04-11T07:02:25.337Z,6.85
2023-04-11T07:04:52.840Z,8.07
2023-04-11T07:07:19.378Z,7.03
2023-04-11T07:09:47.545Z,6.88
2023-04-11T07:12:14.031Z,6.63
2023-04-11T07:14:40.770Z,7.30
2023-04-11T07:17:07.181Z,7.30
2023-04-11T07:19:33.638Z,8.25
2023-04-11T07:22:00.481Z,7.18
2023-04-11T07:24:27.180Z,7.32
2023-04-11T07:26:54.309Z,7.03
2023-04-11T07:29:21.373Z,7.57
2023-04-11T07:31:47.976Z,7.40
2023-04-11T07:34:14.454Z,7.13
2023-04-11T07:36:41.888Z,7.00
2023-04-11T07:39:09.465Z,7.78
2023-04-11T07:41:39.306Z,7.47
2023-04-11T07:44:06.965Z,6.90
2023-04-11T07:46:33.825Z,7.28
2023-04-11T07:49:00.333Z,7.85
2023-04-11T07:51:27.157Z,6.68
2023-04-11T07:53:54.508Z,8.13
2023-04-11T07:56:21.151Z,8.90
2023-04-11T07:58:47.580Z,7.45
2023-04-11T08:01:24.993Z,7.72
2023-04-11T08:03:52.982Z,8.65
2023-04-11T08:06:19.771Z,8.20
2023-04-11T08:08:46.726Z,8.27
2023-04-11T08:11:13.243Z,8.30
2023-04-11T08:13:39.675Z,9.25
2023-04-11T08:16:10.225Z,8.07
2023-04-11T08:18:37.531Z,8.43
2023-04-11T08:21:04.079Z,7.80
2023-04-11T08:23:30.474Z,9.05
2023-04-11T08:25:56.883Z,9.85
2023-04-11T08:28:26.563Z,8.63
2023-04-11T08:30:55.340Z,8.80
2023-04-11T08:33:25.603Z,8.88
2023-04-11T08:35:52.045Z,8.80
2023-04-11T08:38:18.468Z,8.43
2023-04-11T08:40:44.962Z,8.60
2023-04-11T08:43:12.437Z,9.73
2023-04-11T08:45:42.273Z,9.10
2023-04-11T08:48:09.382Z,9.82
2023-04-11T08:50:36.061Z,9.73
2023-04-11T08:53:03.389Z,8.80
2023-04-11T08:55:30.489Z,9.75
2023-04-11T08:57:59.203Z,9.50
2023-04-11T09:00:27.278Z,9.68
2023-04-11T09:02:57.625Z,9.40
2023-04-11T09:05:27.113Z,9.95
2023-04-11T09:07:53.584Z,9.05
2023-04-11T09:10:20.502Z,10.25
2023-04-11T09:12:49.723Z,9.18
2023-04-11T09:15:23.499Z,9.15
2023-04-11T09:17:50.002Z,9.60
2023-04-11T09:20:17.831Z,9.82
2023-04-11T09:22:44.408Z,9.75
2023-04-11T09:25:10.801Z,9.98
2023-04-11T09:27:37.373Z,9.52
2023-04-11T09:30:05.786Z,10.63
2023-04-11T09:32:35.821Z,10.43
2023-04-11T09:35:13.132Z,10.13
2023-04-11T09:37:44.726Z,10.70
2023-04-11T09:40:12.098Z,10.13
2023-04-11T09:42:38.689Z,10.85
2023-04-11T09:45:05.588Z,10.10
2023-04-11T09:47:35.251Z,12.23
2023-04-11T09:50:03.580Z,10.88
2023-04-11T09:52:31.634Z,9.93
2023-04-11T09:54:58.311Z,11.25
2023-04-11T09:57:25.060Z,11.02
2023-04-11T09:59:52.443Z,11.52
2023-04-11T10:02:18.956Z,11.70
2023-04-11T10:04:45.668Z,10.15
2023-04-11T10:07:18.293Z,10.98
2023-04-11T10:09:45.431Z,10.57
2023-04-11T10:12:11.872Z,11.88
2023-04-11T10:14:38.568Z,11.35
2023-04-11T10:17:12.088Z,11.10
2023-04-11T10:19:38.563Z,11.75
2023-04-11T10:22:05.033Z,11.00
2023-04-11T10:24:31.506Z,11.25
2023-04-11T10:26:59.222Z,11.45
2023-04-11T10:29:36.473Z,10.68
2023-04-11T10:32:09.621Z,11.18
2023-04-11T10:34:39.967Z,10.85
2023-04-11T10:37:09.900Z,10.25
2023-04-11T10:39:51.738Z,11.48
2023-04-11T10:42:53.600Z,11.10
2023-04-11T10:45:27.087Z,10.75
2023-04-11T10:47:53.443Z,10.68
2023-04-11T10:50:26.104Z,10.02
2023-04-11T10:52:59.333Z,11.00
2023-04-11T10:55:27.223Z,11.00
2023-04-11T10:58:09.400Z,11.18
2023-04-11T11:00:51.352Z,10.43
2023-04-11T11:03:24.694Z,11.95
2023-04-11T11:06:00.486Z,10.73
2023-04-11T11:08:27.618Z,10.40
2023-04-11T11:10:54.679Z,11.95
2023-04-11T11:13:22.130Z,9.40
2023-04-11T11:15:49.307Z,8.32
2023-04-11T11:18:16.180Z,9.57
2023-04-11T11:20:42.640Z,9.40
2023-04-11T11:23:11.509Z,9.07
2023-04-11T11:25:38.005Z,9.43
2023-04-11T11:28:08.445Z,10.48
2023-04-11T11:30:38.724Z,10.57
2023-04-11T11:33:18.430Z,9.90
2023-04-11T11:36:07.591Z,10.88
2023-04-11T11:38:34.030Z,10.63
2023-04-11T11:41:00.636Z,11.23
2023-04-11T11:43:30.518Z,10.75
2023-04-11T11:46:09.334Z,11.50
2023-04-11T11:48:36.240Z,11.43
2023-04-11T11:51:02.653Z,10.65
2023-04-11T11:53:29.051Z,9.95
2023-04-11T11:55:56.757Z,10.35
2023-04-11T11:58:23.256Z,9.50
2023-04-11T12:00:50.576Z,10.45
2023-04-11T12:03:20.110Z,9.75
2023-04-11T12:05:47.795Z,9.93
2023-04-11T12:08:14.515Z,9.23
2023-04-11T12:10:42.135Z,9.05
2023-04-11T12:13:12.083Z,8.15
2023-04-11T12:15:38.579Z,9.77
2023-04-11T12:18:05.833Z,8.95
2023-04-11T12:20:32.760Z,9.38
2023-04-11T12:22:59.228Z,9.05
2023-04-11T12:25:25.933Z,9.40
2023-04-11T12:27:52.400Z,8.57
2023-04-11T12:30:18.950Z,8.88
2023-04-11T12:32:45.609Z,9.50
2023-04-11T12:35:12.570Z,8.05
2023-04-11T12:37:39.146Z,8.88
2023-04-11T12:40:09.328Z,8.70
2023-04-11T12:42:41.981Z,8.32
2023-04-11T12:45:13.957Z,8.93
2023-04-11T12:47:40.801Z,9.18
2023-04-11T12:50:08.098Z,7.85
2023-04-11T12:52:34.829Z,8.60
2023-04-11T12:55:01.461Z,9.13
2023-04-11T12:57:28.184Z,8.80
2023-04-11T12:59:54.732Z,9.02
2023-04-11T13:02:21.502Z,8.70
2023-04-11T13:04:50.511Z,8.63
2023-04-11T13:07:17.035Z,8.52
2023-04-11T13:09:43.489Z,8.73
2023-04-11T13:12:09.973Z,8.40
2023-04-11T13:14:36.608Z,8.85
2023-04-11T13:17:03.262Z,8.85
2023-04-11T13:19:29.694Z,8.20
2023-04-11T13:21:56.189Z,8.65
2023-04-11T13:24:22.739Z,8.15
2023-04-11T13:26:49.205Z,9.65
2023-04-11T13:29:17.287Z,8.02
2023-04-11T13:31:43.888Z,8.90
2023-04-11T13:34:10.833Z,9.20
2023-04-11T13:36:37.673Z,8.00
2023-04-11T13:39:05.627Z,8.30
2023-04-11T13:41:32.560Z,7.90
2023-04-11T13:43:59.057Z,7.88
2023-04-11T13:46:26.083Z,8.30
2023-04-11T13:48:52.916Z,7.85
2023-04-11T13:51:19.501Z,8.20
2023-04-11T13:53:46.143Z,7.70
2023-04-11T13:56:12.597Z,7.82
2023-04-11T13:58:39.066Z,6.78
2023-04-11T14:01:06.753Z,7.35
2023-04-11T14:03:33.858Z,7.40
2023-04-11T14:06:00.741Z,6.95
2023-04-11T14:08:27.609Z,7.78
2023-04-11T14:10:54.285Z,6.95
2023-04-11T14:13:20.864Z,6.97
2023-04-11T14:15:49.681Z,6.32
2023-04-11T14:18:21.587Z,6.85
2023-04-11T14:20:48.459Z,7.43
2023-04-11T14:23:16.585Z,7.28
2023-04-11T14:25:43.347Z,6.70
2023-04-11T14:28:09.743Z,6.85
2023-04-11T14:30:36.474Z,6.43
2023-04-11T14:33:03.034Z,5.68
2023-04-11T14:35:29.489Z,6.18
2023-04-11T14:37:57.110Z,6.15
2023-04-11T14:40:23.582Z,6.80
2023-04-11T14:42:49.974Z,5.70
2023-04-11T14:45:16.542Z,6.15
2023-04-11T14:47:43.516Z,6.22
2023-04-11T14:50:10.308Z,5.93
2023-04-11T14:52:36.708Z,6.30
2023-04-11T14:55:03.593Z,6.35
2023-04-11T14:57:49.174Z,6.43
2023-04-11T15:00:19.854Z,5.80
2023-04-11T15:02:47.257Z,6.00
2023-04-11T15:05:15.189Z,5.68
2023-04-11T15:07:41.660Z,5.85
2023-04-11T15:10:08.502Z,5.47
2023-04-11T15:12:34.910Z,4.25
2023-04-11T15:15:01.347Z,3.97
2023-04-11T15:17:27.805Z,3.75
2023-04-11T15:19:55.368Z,4.05
2023-04-11T15:22:22.030Z,3.45
2023-04-11T15:24:48.451Z,3.75
2023-04-11T15:27:14.882Z,2.88
2023-04-11T15:29:41.282Z,2.83
2023-04-11T15:32:07.668Z,3.40
2023-04-11T15:34:34.073Z,3.58
2023-04-11T15:37:00.458Z,4.05
2023-04-11T15:39:27.173Z,4.55
2023-04-11T15:41:53.603Z,4.10
2023-04-11T15:44:20.020Z,4.63
2023-04-11T15:46:48.996Z,4.88
2023-04-11T15:49:17.601Z,3.95
2023-04-11T15:51:44.874Z,5.13
2023-04-11T15:54:11.435Z,4.82
2023-04-11T15:56:37.894Z,4.60
2023-04-11T15:59:04.285Z,4.43
2023-04-11T16:01:30.969Z,4.60
2023-04-11T16:03:57.952Z,4.97
2023-04-11T16:06:24.637Z,4.80
2023-04-11T16:08:51.272Z,4.82
2023-04-11T16:11:17.700Z,4.88
2023-04-11T16:13:44.169Z,5.55
2023-04-11T16:16:11.423Z,5.18
2023-04-11T16:18:37.880Z,4.40
2023-04-11T16:21:04.526Z,4.05
2023-04-11T16:23:30.981Z,4.13
2023-04-11T16:25:57.372Z,4.25
2023-04-11T16:28:25.928Z,4.50
2023-04-11T16:30:52.328Z,4.15
2023-04-11T16:33:18.988Z,4.18
2023-04-11T16:35:46.009Z,4.07
2023-04-11T16:38:12.875Z,4.35
2023-04-11T16:40:39.635Z,4.45
2023-04-11T16:43:06.061Z,4.13
2023-04-11T16:45:32.861Z,3.53
2023-04-11T16:47:59.422Z,3.13
2023-04-11T16:50:26.047Z,3.08
2023-04-11T16:52:52.510Z,3.35
2023-04-11T16:55:19.083Z,3.83
2023-04-11T16:57:45.481Z,3.35
2023-04-11T17:00:19.871Z,3.05
2023-04-11T17:02:49.230Z,2.78
2023-04-11T17:05:18.881Z,3.00
2023-04-11T17:07:45.439Z,3.40
2023-04-11T17:10:11.912Z,3.58
2023-04-11T17:12:38.302Z,4.13
2023-04-11T17:15:08.554Z,3.72
2023-04-11T17:17:35.079Z,3.70
2023-04-11T17:20:07.715Z,2.47
2023-04-11T17:22:34.106Z,3.50
2023-04-11T17:25:00.594Z,2.65
2023-04-11T17:27:27.059Z,2.35
2023-04-11T17:29:53.475Z,2.97
2023-04-11T17:32:19.862Z,2.65
2023-04-11T17:34:47.693Z,2.33
2023-04-11T17:37:14.075Z,2.97
2023-04-11T17:39:40.475Z,3.47
2023-04-11T17:42:07.379Z,2.78
2023-04-11T17:44:34.149Z,3.30
2023-04-11T17:47:00.594Z,2.67
2023-04-11T17:49:27.448Z,2.80
2023-04-11T17:51:59.005Z,2.85
2023-04-11T17:54:26.144Z,3.10
2023-04-11T17:56:52.678Z,2.83
2023-04-11T17:59:20.207Z,2.85
2023-04-11T18:01:47.146Z,2.75
2023-04-11T18:04:14.932Z,2.60
2023-04-11T18:06:42.428Z,2.45
2023-04-11T18:09:09.179Z,2.75
2023-04-11T18:11:37.650Z,2.60
2023-04-11T18:14:04.046Z,2.70
2023-04-11T18:16:30.633Z,2.80
2023-04-11T18:18:57.342Z,3.53
2023-04-11T18:21:23.812Z,3.55
2023-04-11T18:23:50.338Z,2.92
2023-04-11T18:26:16.709Z,3.50
2023-04-11T18:28:43.106Z,3.50
2023-04-11T18:31:09.704Z,3.47
2023-04-11T18:33:37.318Z,3.25
2023-04-11T18:36:07.203Z,3.33
2023-04-11T18:38:33.627Z,3.45
2023-04-11T18:41:03.832Z,3.38
2023-04-11T18:43:31.748Z,3.00
2023-04-11T18:46:00.780Z,3.47
2023-04-11T18:48:27.534Z,3.17
2023-04-11T18:50:59.886Z,2.70
2023-04-11T18:53:28.231Z,3.13
2023-04-11T18:55:54.855Z,3.30
2023-04-11T18:58:25.599Z,3.10
2023-04-11T19:00:53.196Z,2.45
2023-04-11T19:03:20.034Z,2.60
2023-04-11T19:05:47.701Z,4.10
2023-04-11T19:08:17.607Z,3.50
2023-04-11T19:10:44.054Z,3.60
2023-04-11T19:13:10.728Z,3.63
2023-04-11T19:15:39.789Z,4.13
2023-04-11T19:18:07.404Z,4.57
2023-04-11T19:20:34.104Z,4.13
2023-04-11T19:23:01.323Z,4.32
2023-04-11T19:25:31.190Z,5.07
2023-04-11T19:27:57.630Z,5.68
2023-04-11T19:30:26.638Z,7.35
2023-04-11T19:32:53.241Z,5.25
2023-04-11T19:35:24.079Z,4.15
2023-04-11T19:40:18.506Z,3.83
2023-04-11T19:42:45.075Z,4.32
2023-04-11T19:45:12.161Z,4.07
2023-04-11T19:47:41.711Z,3.25
2023-04-11T19:50:11.612Z,3.28
2023-04-11T19:52:38.181Z,3.63
2023-04-11T19:55:04.931Z,3.03
2023-04-11T19:58:25.362Z,2.80
2023-04-11T20:00:53.070Z,3.77
2023-04-11T20:03:20.367Z,2.83
2023-04-11T20:05:47.081Z,3.13
2023-04-11T20:08:13.733Z,2.80
2023-04-11T20:10:40.487Z,2.72
2023-04-11T20:13:07.227Z,14.15
2023-04-11T20:15:33.596Z,6.70
2023-04-11T20:18:00.051Z,3.85
2023-04-11T20:20:27.937Z,2.88
2023-04-11T20:22:54.807Z,2.97
2023-04-11T20:25:21.402Z,2.75
2023-04-11T20:27:47.772Z,3.63
2023-04-11T20:30:15.929Z,3.20
2023-04-11T20:32:42.992Z,3.22
2023-04-11T20:35:10.153Z,3.40
2023-04-11T20:37:36.709Z,3.30
2023-04-11T20:40:07.347Z,2.63
2023-04-11T20:42:35.149Z,2.78
2023-04-11T20:45:06.117Z,8.30
2023-04-11T20:50:04.151Z,4.70
2023-04-11T20:52:31.310Z,4.80
2023-04-11T20:55:00.323Z,10.27
2023-04-11T20:57:29.822Z,6.25
2023-04-11T20:59:56.924Z,6.60
2023-04-11T21:02:26.738Z,8.30
2023-04-11T21:04:53.784Z,7.95
2023-04-11T21:07:20.808Z,19.42
2023-04-11T21:09:48.627Z,7.40
2023-04-11T21:12:15.470Z,4.60
2023-04-11T21:14:41.928Z,3.83
2023-04-11T21:17:09.124Z,4.68
2023-04-11T21:19:36.318Z,3.85
2023-04-11T21:22:03.191Z,3.20
2023-04-11T21:24:33.394Z,2.42
2023-04-11T21:27:00.130Z,2.70
2023-04-11T21:29:27.000Z,3.05
2023-04-11T21:31:53.425Z,2.90
2023-04-11T21:34:19.835Z,2.50
2023-04-11T21:36:46.312Z,2.78
2023-04-11T21:39:12.745Z,2.42
2023-04-11T21:41:39.312Z,2.58
2023-04-11T21:44:05.766Z,2.38
2023-04-11T21:46:32.328Z,2.30
2023-04-11T21:48:58.867Z,2.50
2023-04-11T21:51:26.605Z,2.35
2023-04-11T21:53:53.008Z,2.13
2023-04-11T21:56:19.399Z,2.60
2023-04-11T21:58:46.048Z,2.60
2023-04-11T22:01:12.855Z,2.30
2023-04-11T22:03:42.367Z,2.28
2023-04-11T22:06:09.942Z,2.58
2023-04-11T22:08:38.882Z,2.38
2023-04-11T22:11:07.686Z,3.42
2023-04-11T22:13:34.970Z,2.63
2023-04-11T22:16:05.702Z,2.50
2023-04-11T22:18:34.089Z,2.22
2023-04-11T22:21:03.060Z,2.15
2023-04-11T22:23:29.963Z,2.67
2023-04-11T22:25:57.696Z,2.28
2023-04-11T22:28:24.207Z,2.17
2023-04-11T22:30:50.605Z,2.33
2023-04-11T22:33:17.031Z,2.17
2023-04-11T22:35:49.380Z,1.90
2023-04-11T22:38:16.810Z,2.45
2023-04-11T22:40:43.323Z,2.60
2023-04-11T22:43:10.643Z,2.30
2023-04-11T22:45:37.313Z,2.30
2023-04-11T22:48:04.630Z,1.88
2023-04-11T22:50:32.209Z,1.98
2023-04-11T22:53:01.962Z,2.13
2023-04-11T22:55:34.515Z,2.42
2023-04-11T22:58:01.593Z,2.10
2023-04-11T23:00:28.969Z,2.42
2023-04-11T23:02:56.782Z,2.20
2023-04-11T23:05:26.264Z,2.38
2023-04-11T23:07:52.763Z,2.00
2023-04-11T23:10:19.332Z,2.10
2023-04-11T23:12:47.304Z,2.13
2023-04-11T23:15:13.773Z,2.03
2023-04-11T23:17:40.249Z,2.28
2023-04-11T23:20:11.176Z,2.20
2023-04-11T23:25:04.685Z,1.75
2023-04-11T23:27:31.237Z,1.60
2023-04-11T23:29:58.774Z,2.10
2023-04-11T23:32:25.300Z,1.67
2023-04-11T23:34:51.731Z,1.95
2023-04-11T23:37:19.577Z,1.92
2023-04-11T23:39:48.064Z,2.40
2023-04-11T23:42:14.686Z,2.03
2023-04-11T23:44:41.186Z,1.77
2023-04-11T23:47:07.982Z,1.90
2023-04-11T23:49:34.424Z,1.50
2023-04-11T23:52:00.990Z,1.70
2023-04-11T23:54:31.215Z,1.70
2023-04-11T23:56:59.773Z,1.90
2023-04-11T23:59:26.146Z,1.73
